Tropical Cyclones
[Index]
Main Index Home Page Stock Weather Photos Extreme Storms Discussion Storm News and Storm Chasing Reports Tropical Cyclones / Hurricanes / Typhoons Weather Data and Links Wild Fires / Bushfires Weather Observation Techniques Weather Picture Catalogue Tornado Pictures and Reports Stock Video Footage and DVDs for sale
Season 2015-2016 Tropical Cyclone URIAH Track Map
Season 2015-2016 Summaries (Operational Data): [AU] [SIO] [SPAC] [SH]
<<- Previous TC | 2015-2016 Season | Next TC ->>

click for intensity scale information  Lat/long Grid: Show Hide

 Date Labels: Show Hide

Operational Tropical Cyclone Data : JTWC Advisories

Name: URIAH
Number: 1613

06 Feb 2016 06:00 UTC to 28 Feb 2016 00:00 UTC

    date/time    lat    long     hPa   cat  kts
2016-02-06 06    3.6    84.9    1010         15          
2016-02-06 12    7.1    84.0    1010         15          
2016-02-06 18    7.3    84.9    1007         20          
2016-02-07 00    7.5    85.7    1007         20          
2016-02-07 06    7.9    86.3    1007         20          
2016-02-07 12    8.6    86.3    1005         20          
2016-02-07 18   10.5    91.6    1007         20          
2016-02-08 00   10.6    92.8    1007         20          
2016-02-08 06   10.6    93.8    1007         20          
2016-02-08 12   10.7    92.1    1007         20          
2016-02-08 18   10.8    92.5    1007         20          
2016-02-09 00   11.2    93.5    1007         20          
2016-02-09 06   11.2    94.3    1007         20          
2016-02-09 12   11.2    94.8    1005         20          
2016-02-09 18   11.2    92.0    1006         20          
2016-02-10 00   11.1    92.5    1005         20          
2016-02-10 06   11.0    93.0    1005         20          
2016-02-10 12   10.9    93.6    1005         20          
2016-02-10 18   10.6    94.3    1004         25          
2016-02-11 00   10.3    95.0    1004         25          
2016-02-11 06    9.8    95.8    1004         25          
2016-02-11 12    9.8    96.8    1004         25          
2016-02-11 18   10.1    97.4    1000         30          
2016-02-12 00   10.4    97.4    1004         25          
2016-02-12 06   10.7    97.2    1001         30          
2016-02-12 12   11.1    96.8    1000         30          
2016-02-12 18   11.5    96.4    1000         30          
2016-02-13 00   12.0    95.8    1000         30          
2016-02-13 06   12.3    95.0    1000         30          
2016-02-13 12   12.6    94.1     996    1    35          
2016-02-13 18   13.2    93.1     993    1    40          
2016-02-14 00   13.8    92.1     989    1    45          
2016-02-14 06   14.4    91.3     985    2    50          
2016-02-14 12   14.9    90.4     982    2    55          
2016-02-14 18   15.4    89.5     982    2    55          
2016-02-15 00   15.7    89.0     982    2    55          
2016-02-15 06   16.1    88.3     982    2    55          
2016-02-15 12   16.5    87.7     982    2    55          
2016-02-15 18   17.0    87.2     982    2    55          
2016-02-16 00   17.5    86.5     985    2    50          
2016-02-16 06   17.9    85.4     982    2    55          
2016-02-16 12   18.0    84.2     967    3    75          
2016-02-16 18   18.0    82.7     967    3    75          
2016-02-17 00   17.9    81.8     944    4   105          
2016-02-17 06   18.1    80.9     944    4   105          
2016-02-17 12   18.6    80.1     937    5   115          
2016-02-17 18   19.2    79.5     929    5   125          
2016-02-18 00   19.9    79.1     933    5   120          
2016-02-18 06   20.9    78.7     944    4   105          
2016-02-18 12   22.0    78.7     956    4    90          
2016-02-18 18   23.0    78.8     963    3    80          
2016-02-19 00   24.0    78.9     974    3    65          
2016-02-19 06   24.6    78.0     982    2    55          
2016-02-19 12   24.9    77.8     985    2    50          
2016-02-19 18   25.1    77.7     996    1    35          
2016-02-20 00   25.4    77.5     999    1    35          
2016-02-20 06   25.6    77.4     996    1    35          
2016-02-20 12   25.7    77.3    1000         30          
2016-02-20 18   25.9    77.2    1004         25          
2016-02-21 00   26.2    76.8    1004         25          
2016-02-21 06   26.2    77.1    1004         25          
2016-02-21 12   27.0    77.1    1004         25          
2016-02-21 18   27.4    77.2    1004         25          
2016-02-22 00   27.8    77.5    1004         25          
2016-02-22 06   28.5    77.8    1000         30          
2016-02-22 12   29.8    78.5                             
2016-02-22 18   30.4    79.3                             
2016-02-23 00   32.0    79.4     999                     
2016-02-23 06   33.0    79.9                             
2016-02-23 12   34.8    80.0                             
2016-02-23 18   35.7    80.1                             
2016-02-24 00   37.7    80.1     998                     
2016-02-24 06   39.8    80.2                             
2016-02-24 12   40.9    81.0                             
2016-02-24 18   42.6    82.3                             
2016-02-25 00   44.5    84.1     994                     
2016-02-25 06   45.8    87.1                             
2016-02-25 12   47.8    91.1                             
2016-02-25 18   50.3    96.9                             
2016-02-26 00   52.5   106.6     985                     
2016-02-26 06   52.8   111.1                             
2016-02-26 12   53.0   118.4                             
2016-02-26 18   53.2   126.1                             
2016-02-27 00   52.8   132.3     976                     
2016-02-27 06   52.7   139.4                             
2016-02-27 12   53.9   149.8                             
2016-02-27 18   55.2   157.4                             
2016-02-28 00   55.6   163.6     978                     
Winds are 10-min average.

Tropical cyclone tracks developed by Michael Bath using operational warnings and advisories and Google Maps.


[Australian Severe Weather index] [Copyright Notice] [Email Contacts] [Search This Site] [Privacy Policy]
Document: tropical_cyclone_uriah.htm Updated: 2 May 2017